sensor_id;sensor_type;location;lat;lon;timestamp;P1;durP1;ratioP1;P2;durP2;ratioP2
13445;SDS011;6795;51.232;3.764;2023-10-09T00:00:13;28.10;;;18.25;;
13445;SDS011;6795;51.232;3.764;2023-10-09T00:02:59;28.40;;;19.23;;
13445;SDS011;6795;51.232;3.764;2023-10-09T00:05:30;26.13;;;17.75;;
13445;SDS011;6795;51.232;3.764;2023-10-09T00:08:13;24.27;;;17.88;;
13445;SDS011;6795;51.232;3.764;2023-10-09T00:10:46;25.75;;;18.30;;
13445;SDS011;6795;51.232;3.764;2023-10-09T00:13:22;28.65;;;17.73;;
13445;SDS011;6795;51.232;3.764;2023-10-09T00:15:58;26.15;;;18.40;;
13445;SDS011;6795;51.232;3.764;2023-10-09T00:18:35;23.58;;;17.13;;
13445;SDS011;6795;51.232;3.764;2023-10-09T00:21:04;28.45;;;17.85;;
13445;SDS011;6795;51.232;3.764;2023-10-09T00:23:39;22.08;;;17.10;;
13445;SDS011;6795;51.232;3.764;2023-10-09T00:26:08;26.48;;;18.17;;
13445;SDS011;6795;51.232;3.764;2023-10-09T00:28:44;23.55;;;17.30;;
13445;SDS011;6795;51.232;3.764;2023-10-09T00:31:14;25.27;;;17.20;;
13445;SDS011;6795;51.232;3.764;2023-10-09T00:33:43;21.33;;;16.65;;
13445;SDS011;6795;51.232;3.764;2023-10-09T00:36:11;27.13;;;15.68;;
13445;SDS011;6795;51.232;3.764;2023-10-09T00:38:46;19.67;;;15.02;;
13445;SDS011;6795;51.232;3.764;2023-10-09T00:41:18;21.58;;;15.80;;
13445;SDS011;6795;51.232;3.764;2023-10-09T00:43:52;26.25;;;16.23;;
13445;SDS011;6795;51.232;3.764;2023-10-09T00:46:26;25.77;;;15.70;;
13445;SDS011;6795;51.232;3.764;2023-10-09T00:48:56;22.13;;;15.30;;
13445;SDS011;6795;51.232;3.764;2023-10-09T00:51:28;21.17;;;15.25;;
13445;SDS011;6795;51.232;3.764;2023-10-09T00:54:04;18.70;;;14.50;;
13445;SDS011;6795;51.232;3.764;2023-10-09T00:56:41;20.55;;;15.77;;
13445;SDS011;6795;51.232;3.764;2023-10-09T00:59:13;24.38;;;16.45;;
13445;SDS011;6795;51.232;3.764;2023-10-09T01:01:46;20.10;;;16.58;;
13445;SDS011;6795;51.232;3.764;2023-10-09T01:04:24;21.83;;;14.10;;
13445;SDS011;6795;51.232;3.764;2023-10-09T01:06:55;21.35;;;14.45;;
13445;SDS011;6795;51.232;3.764;2023-10-09T01:09:35;18.42;;;13.18;;
13445;SDS011;6795;51.232;3.764;2023-10-09T01:12:05;16.15;;;13.50;;
13445;SDS011;6795;51.232;3.764;2023-10-09T01:14:35;20.17;;;13.35;;
13445;SDS011;6795;51.232;3.764;2023-10-09T01:17:04;18.77;;;14.30;;
13445;SDS011;6795;51.232;3.764;2023-10-09T01:19:55;24.42;;;15.20;;
13445;SDS011;6795;51.232;3.764;2023-10-09T01:22:24;24.45;;;13.45;;
13445;SDS011;6795;51.232;3.764;2023-10-09T01:24:55;19.80;;;12.98;;
13445;SDS011;6795;51.232;3.764;2023-10-09T01:27:23;19.63;;;14.38;;
13445;SDS011;6795;51.232;3.764;2023-10-09T01:29:59;16.95;;;11.73;;
13445;SDS011;6795;51.232;3.764;2023-10-09T01:32:28;19.45;;;11.82;;
13445;SDS011;6795;51.232;3.764;2023-10-09T01:34:57;17.60;;;11.27;;
13445;SDS011;6795;51.232;3.764;2023-10-09T01:37:26;15.98;;;12.55;;
13445;SDS011;6795;51.232;3.764;2023-10-09T01:39:58;14.95;;;11.65;;
13445;SDS011;6795;51.232;3.764;2023-10-09T01:42:46;15.88;;;12.10;;
13445;SDS011;6795;51.232;3.764;2023-10-09T01:45:15;18.75;;;12.07;;
13445;SDS011;6795;51.232;3.764;2023-10-09T01:47:54;16.15;;;11.10;;
13445;SDS011;6795;51.232;3.764;2023-10-09T01:50:23;17.42;;;11.90;;
13445;SDS011;6795;51.232;3.764;2023-10-09T01:52:58;17.20;;;11.40;;
13445;SDS011;6795;51.232;3.764;2023-10-09T01:55:29;16.75;;;12.43;;
13445;SDS011;6795;51.232;3.764;2023-10-09T01:58:01;14.30;;;12.32;;
13445;SDS011;6795;51.232;3.764;2023-10-09T02:00:32;15.75;;;11.90;;
13445;SDS011;6795;51.232;3.764;2023-10-09T02:03:10;17.25;;;12.18;;
13445;SDS011;6795;51.232;3.764;2023-10-09T02:05:50;17.35;;;12.02;;
13445;SDS011;6795;51.232;3.764;2023-10-09T02:08:19;18.65;;;12.63;;
13445;SDS011;6795;51.232;3.764;2023-10-09T02:10:55;22.02;;;12.95;;
13445;SDS011;6795;51.232;3.764;2023-10-09T02:13:24;18.48;;;12.63;;
13445;SDS011;6795;51.232;3.764;2023-10-09T02:15:56;30.73;;;14.52;;
13445;SDS011;6795;51.232;3.764;2023-10-09T02:18:40;19.05;;;12.95;;
13445;SDS011;6795;51.232;3.764;2023-10-09T02:21:20;18.48;;;13.25;;
13445;SDS011;6795;51.232;3.764;2023-10-09T02:24:00;17.95;;;14.25;;
13445;SDS011;6795;51.232;3.764;2023-10-09T02:26:37;19.50;;;13.95;;
13445;SDS011;6795;51.232;3.764;2023-10-09T02:29:33;21.38;;;13.57;;
13445;SDS011;6795;51.232;3.764;2023-10-09T02:32:08;23.27;;;13.02;;
13445;SDS011;6795;51.232;3.764;2023-10-09T02:34:52;18.90;;;13.70;;
13445;SDS011;6795;51.232;3.764;2023-10-09T02:37:21;19.42;;;13.88;;
13445;SDS011;6795;51.232;3.764;2023-10-09T02:39:51;18.67;;;14.77;;
13445;SDS011;6795;51.232;3.764;2023-10-09T02:42:21;17.92;;;13.77;;
13445;SDS011;6795;51.232;3.764;2023-10-09T02:44:55;20.48;;;13.45;;
13445;SDS011;6795;51.232;3.764;2023-10-09T02:47:26;23.83;;;15.15;;
13445;SDS011;6795;51.232;3.764;2023-10-09T02:49:58;21.13;;;13.98;;
13445;SDS011;6795;51.232;3.764;2023-10-09T02:52:33;22.00;;;15.07;;
13445;SDS011;6795;51.232;3.764;2023-10-09T02:55:07;22.02;;;15.45;;
13445;SDS011;6795;51.232;3.764;2023-10-09T02:57:53;18.65;;;15.02;;
13445;SDS011;6795;51.232;3.764;2023-10-09T03:00:32;19.30;;;15.15;;
13445;SDS011;6795;51.232;3.764;2023-10-09T03:03:03;24.17;;;16.67;;
13445;SDS011;6795;51.232;3.764;2023-10-09T03:05:34;28.02;;;17.55;;
13445;SDS011;6795;51.232;3.764;2023-10-09T03:08:05;23.65;;;17.13;;
13445;SDS011;6795;51.232;3.764;2023-10-09T03:10:35;22.23;;;16.67;;
13445;SDS011;6795;51.232;3.764;2023-10-09T03:13:06;22.48;;;16.02;;
13445;SDS011;6795;51.232;3.764;2023-10-09T03:15:35;21.55;;;17.35;;
13445;SDS011;6795;51.232;3.764;2023-10-09T03:18:04;24.65;;;17.05;;
13445;SDS011;6795;51.232;3.764;2023-10-09T03:20:33;32.88;;;18.85;;
13445;SDS011;6795;51.232;3.764;2023-10-09T03:23:02;23.60;;;17.45;;
13445;SDS011;6795;51.232;3.764;2023-10-09T03:25:30;23.08;;;18.17;;
13445;SDS011;6795;51.232;3.764;2023-10-09T03:27:59;24.25;;;18.05;;
13445;SDS011;6795;51.232;3.764;2023-10-09T03:30:29;25.48;;;18.10;;
13445;SDS011;6795;51.232;3.764;2023-10-09T03:32:59;25.10;;;19.83;;
13445;SDS011;6795;51.232;3.764;2023-10-09T03:35:30;26.02;;;18.98;;
13445;SDS011;6795;51.232;3.764;2023-10-09T03:38:00;28.98;;;18.67;;
13445;SDS011;6795;51.232;3.764;2023-10-09T03:40:40;24.50;;;17.83;;
13445;SDS011;6795;51.232;3.764;2023-10-09T03:43:09;25.13;;;19.58;;
13445;SDS011;6795;51.232;3.764;2023-10-09T03:45:40;24.85;;;20.15;;
13445;SDS011;6795;51.232;3.764;2023-10-09T03:48:16;28.70;;;19.80;;
13445;SDS011;6795;51.232;3.764;2023-10-09T03:50:52;28.42;;;19.38;;
13445;SDS011;6795;51.232;3.764;2023-10-09T03:53:35;26.05;;;19.85;;
13445;SDS011;6795;51.232;3.764;2023-10-09T03:56:06;27.70;;;20.65;;
13445;SDS011;6795;51.232;3.764;2023-10-09T03:58:39;28.33;;;22.02;;
13445;SDS011;6795;51.232;3.764;2023-10-09T04:01:10;33.53;;;22.92;;
13445;SDS011;6795;51.232;3.764;2023-10-09T04:03:45;29.98;;;22.98;;
13445;SDS011;6795;51.232;3.764;2023-10-09T04:06:14;29.00;;;22.63;;
13445;SDS011;6795;51.232;3.764;2023-10-09T04:08:44;31.58;;;25.08;;
13445;SDS011;6795;51.232;3.764;2023-10-09T04:11:17;42.10;;;26.05;;
13445;SDS011;6795;51.232;3.764;2023-10-09T04:13:49;35.75;;;24.48;;
13445;SDS011;6795;51.232;3.764;2023-10-09T04:16:20;38.92;;;26.20;;
13445;SDS011;6795;51.232;3.764;2023-10-09T04:19:17;33.65;;;25.63;;
13445;SDS011;6795;51.232;3.764;2023-10-09T04:21:48;33.75;;;26.10;;
13445;SDS011;6795;51.232;3.764;2023-10-09T04:24:16;39.83;;;26.85;;
13445;SDS011;6795;51.232;3.764;2023-10-09T04:26:51;33.22;;;26.20;;
13445;SDS011;6795;51.232;3.764;2023-10-09T04:29:27;45.03;;;27.70;;
13445;SDS011;6795;51.232;3.764;2023-10-09T04:32:06;38.33;;;28.50;;
13445;SDS011;6795;51.232;3.764;2023-10-09T04:34:45;36.10;;;27.13;;
13445;SDS011;6795;51.232;3.764;2023-10-09T04:37:16;39.72;;;28.10;;
13445;SDS011;6795;51.232;3.764;2023-10-09T04:39:50;37.45;;;27.95;;
13445;SDS011;6795;51.232;3.764;2023-10-09T04:42:38;44.45;;;29.00;;
13445;SDS011;6795;51.232;3.764;2023-10-09T04:45:13;41.05;;;30.77;;
13445;SDS011;6795;51.232;3.764;2023-10-09T04:48:03;44.97;;;32.58;;
13445;SDS011;6795;51.232;3.764;2023-10-09T04:50:35;45.15;;;31.30;;
13445;SDS011;6795;51.232;3.764;2023-10-09T04:53:12;42.42;;;31.40;;
13445;SDS011;6795;51.232;3.764;2023-10-09T04:55:50;45.72;;;33.72;;
13445;SDS011;6795;51.232;3.764;2023-10-09T04:58:32;43.05;;;33.90;;
13445;SDS011;6795;51.232;3.764;2023-10-09T05:01:05;51.28;;;34.33;;
13445;SDS011;6795;51.232;3.764;2023-10-09T05:03:42;56.90;;;39.60;;
13445;SDS011;6795;51.232;3.764;2023-10-09T05:06:11;57.03;;;39.58;;
13445;SDS011;6795;51.232;3.764;2023-10-09T05:09:09;58.00;;;39.88;;
13445;SDS011;6795;51.232;3.764;2023-10-09T05:11:42;57.33;;;39.85;;
13445;SDS011;6795;51.232;3.764;2023-10-09T05:14:28;60.72;;;41.35;;
13445;SDS011;6795;51.232;3.764;2023-10-09T05:17:06;57.72;;;42.22;;
13445;SDS011;6795;51.232;3.764;2023-10-09T05:19:44;64.22;;;45.08;;
13445;SDS011;6795;51.232;3.764;2023-10-09T05:22:51;69.20;;;45.17;;
13445;SDS011;6795;51.232;3.764;2023-10-09T05:25:25;64.50;;;47.75;;
13445;SDS011;6795;51.232;3.764;2023-10-09T05:28:20;71.38;;;48.05;;
13445;SDS011;6795;51.232;3.764;2023-10-09T05:31:15;70.22;;;48.03;;
13445;SDS011;6795;51.232;3.764;2023-10-09T05:33:58;73.82;;;47.63;;
13445;SDS011;6795;51.232;3.764;2023-10-09T05:36:29;70.53;;;48.75;;
13445;SDS011;6795;51.232;3.764;2023-10-09T05:39:02;76.60;;;49.90;;
13445;SDS011;6795;51.232;3.764;2023-10-09T05:41:47;76.65;;;50.95;;
13445;SDS011;6795;51.232;3.764;2023-10-09T05:44:26;65.95;;;48.92;;
13445;SDS011;6795;51.232;3.764;2023-10-09T05:47:13;77.15;;;51.67;;
13445;SDS011;6795;51.232;3.764;2023-10-09T05:50:01;71.85;;;49.97;;
13445;SDS011;6795;51.232;3.764;2023-10-09T05:52:45;72.95;;;52.45;;
13445;SDS011;6795;51.232;3.764;2023-10-09T05:55:36;75.72;;;50.13;;
13445;SDS011;6795;51.232;3.764;2023-10-09T05:58:30;71.30;;;52.92;;
13445;SDS011;6795;51.232;3.764;2023-10-09T06:01:17;72.43;;;52.55;;
13445;SDS011;6795;51.232;3.764;2023-10-09T06:04:03;76.38;;;52.63;;
13445;SDS011;6795;51.232;3.764;2023-10-09T06:06:42;75.88;;;54.47;;
13445;SDS011;6795;51.232;3.764;2023-10-09T06:09:14;73.28;;;52.83;;
13445;SDS011;6795;51.232;3.764;2023-10-09T06:12:16;76.53;;;54.38;;
13445;SDS011;6795;51.232;3.764;2023-10-09T06:15:20;69.90;;;51.47;;
13445;SDS011;6795;51.232;3.764;2023-10-09T06:18:18;74.70;;;53.75;;
13445;SDS011;6795;51.232;3.764;2023-10-09T06:21:03;71.65;;;52.92;;
13445;SDS011;6795;51.232;3.764;2023-10-09T06:23:52;72.05;;;51.45;;
13445;SDS011;6795;51.232;3.764;2023-10-09T06:26:43;79.43;;;53.60;;
13445;SDS011;6795;51.232;3.764;2023-10-09T06:29:26;68.18;;;52.30;;
13445;SDS011;6795;51.232;3.764;2023-10-09T06:32:01;70.97;;;51.80;;
13445;SDS011;6795;51.232;3.764;2023-10-09T06:34:51;72.30;;;51.90;;
13445;SDS011;6795;51.232;3.764;2023-10-09T06:37:19;74.18;;;53.92;;
13445;SDS011;6795;51.232;3.764;2023-10-09T06:40:05;68.43;;;52.95;;
13445;SDS011;6795;51.232;3.764;2023-10-09T06:42:53;65.07;;;51.50;;
13445;SDS011;6795;51.232;3.764;2023-10-09T06:45:22;67.60;;;52.38;;
13445;SDS011;6795;51.232;3.764;2023-10-09T06:47:59;69.30;;;51.72;;
13445;SDS011;6795;51.232;3.764;2023-10-09T06:50:36;70.97;;;53.20;;
13445;SDS011;6795;51.232;3.764;2023-10-09T06:53:19;64.70;;;49.72;;
13445;SDS011;6795;51.232;3.764;2023-10-09T06:55:53;67.40;;;49.95;;
13445;SDS011;6795;51.232;3.764;2023-10-09T06:58:33;67.28;;;51.60;;
13445;SDS011;6795;51.232;3.764;2023-10-09T07:01:09;63.00;;;48.15;;
13445;SDS011;6795;51.232;3.764;2023-10-09T07:03:46;62.55;;;45.83;;
13445;SDS011;6795;51.232;3.764;2023-10-09T07:06:26;59.65;;;46.00;;
13445;SDS011;6795;51.232;3.764;2023-10-09T07:09:13;57.60;;;45.42;;
13445;SDS011;6795;51.232;3.764;2023-10-09T07:11:47;57.33;;;44.80;;
13445;SDS011;6795;51.232;3.764;2023-10-09T07:14:27;56.13;;;42.70;;
13445;SDS011;6795;51.232;3.764;2023-10-09T07:17:13;66.85;;;43.20;;
13445;SDS011;6795;51.232;3.764;2023-10-09T07:19:51;55.80;;;42.17;;
13445;SDS011;6795;51.232;3.764;2023-10-09T07:22:43;50.20;;;39.28;;
13445;SDS011;6795;51.232;3.764;2023-10-09T07:25:28;50.40;;;38.22;;
13445;SDS011;6795;51.232;3.764;2023-10-09T07:28:21;46.88;;;38.00;;
13445;SDS011;6795;51.232;3.764;2023-10-09T07:31:17;49.83;;;39.08;;
13445;SDS011;6795;51.232;3.764;2023-10-09T07:34:07;44.53;;;36.72;;
13445;SDS011;6795;51.232;3.764;2023-10-09T07:36:51;47.17;;;36.92;;
13445;SDS011;6795;51.232;3.764;2023-10-09T07:39:23;46.28;;;36.70;;
13445;SDS011;6795;51.232;3.764;2023-10-09T07:42:02;43.40;;;34.33;;
13445;SDS011;6795;51.232;3.764;2023-10-09T07:44:47;42.67;;;36.05;;
13445;SDS011;6795;51.232;3.764;2023-10-09T07:47:22;46.78;;;35.15;;
13445;SDS011;6795;51.232;3.764;2023-10-09T07:50:00;49.05;;;35.13;;
13445;SDS011;6795;51.232;3.764;2023-10-09T07:52:30;43.58;;;35.47;;
13445;SDS011;6795;51.232;3.764;2023-10-09T07:54:59;47.50;;;35.13;;
13445;SDS011;6795;51.232;3.764;2023-10-09T07:57:33;46.42;;;37.75;;
13445;SDS011;6795;51.232;3.764;2023-10-09T08:00:09;42.33;;;37.25;;
13445;SDS011;6795;51.232;3.764;2023-10-09T08:02:56;42.90;;;36.38;;
13445;SDS011;6795;51.232;3.764;2023-10-09T08:05:27;41.50;;;33.95;;
13445;SDS011;6795;51.232;3.764;2023-10-09T08:08:01;42.00;;;34.38;;
13445;SDS011;6795;51.232;3.764;2023-10-09T08:11:09;45.42;;;34.55;;
13445;SDS011;6795;51.232;3.764;2023-10-09T08:13:55;44.55;;;34.47;;
13445;SDS011;6795;51.232;3.764;2023-10-09T08:16:28;42.05;;;32.55;;
13445;SDS011;6795;51.232;3.764;2023-10-09T08:19:06;38.95;;;31.80;;
13445;SDS011;6795;51.232;3.764;2023-10-09T08:21:59;38.95;;;29.02;;
13445;SDS011;6795;51.232;3.764;2023-10-09T08:25:05;34.15;;;27.92;;
13445;SDS011;6795;51.232;3.764;2023-10-09T08:27:33;33.78;;;25.92;;
13445;SDS011;6795;51.232;3.764;2023-10-09T08:30:22;30.58;;;25.85;;
13445;SDS011;6795;51.232;3.764;2023-10-09T08:32:55;31.63;;;26.08;;
13445;SDS011;6795;51.232;3.764;2023-10-09T08:35:34;31.92;;;25.77;;
13445;SDS011;6795;51.232;3.764;2023-10-09T08:38:15;31.58;;;25.00;;
13445;SDS011;6795;51.232;3.764;2023-10-09T08:40:50;33.88;;;25.27;;
13445;SDS011;6795;51.232;3.764;2023-10-09T08:43:25;29.42;;;24.17;;
13445;SDS011;6795;51.232;3.764;2023-10-09T08:45:57;34.05;;;25.42;;
13445;SDS011;6795;51.232;3.764;2023-10-09T08:48:29;29.35;;;24.13;;
13445;SDS011;6795;51.232;3.764;2023-10-09T08:51:00;29.23;;;24.42;;
13445;SDS011;6795;51.232;3.764;2023-10-09T08:53:33;26.58;;;23.42;;
13445;SDS011;6795;51.232;3.764;2023-10-09T08:56:02;29.73;;;23.00;;
13445;SDS011;6795;51.232;3.764;2023-10-09T08:58:31;26.63;;;23.77;;
13445;SDS011;6795;51.232;3.764;2023-10-09T09:01:03;27.65;;;23.05;;
13445;SDS011;6795;51.232;3.764;2023-10-09T09:03:38;30.52;;;22.38;;
13445;SDS011;6795;51.232;3.764;2023-10-09T09:06:11;25.52;;;20.90;;
13445;SDS011;6795;51.232;3.764;2023-10-09T09:08:42;30.60;;;22.30;;
13445;SDS011;6795;51.232;3.764;2023-10-09T09:11:13;26.02;;;20.80;;
13445;SDS011;6795;51.232;3.764;2023-10-09T09:13:44;24.83;;;20.92;;
13445;SDS011;6795;51.232;3.764;2023-10-09T09:16:16;29.55;;;19.92;;
13445;SDS011;6795;51.232;3.764;2023-10-09T09:18:52;26.52;;;20.30;;
13445;SDS011;6795;51.232;3.764;2023-10-09T09:21:34;22.23;;;18.60;;
13445;SDS011;6795;51.232;3.764;2023-10-09T09:24:07;21.45;;;18.80;;
13445;SDS011;6795;51.232;3.764;2023-10-09T09:26:53;23.50;;;19.13;;
13445;SDS011;6795;51.232;3.764;2023-10-09T09:29:38;24.48;;;18.98;;
13445;SDS011;6795;51.232;3.764;2023-10-09T09:32:07;26.55;;;19.50;;
13445;SDS011;6795;51.232;3.764;2023-10-09T09:34:44;25.88;;;19.30;;
13445;SDS011;6795;51.232;3.764;2023-10-09T09:37:22;24.25;;;18.25;;
13445;SDS011;6795;51.232;3.764;2023-10-09T09:39:56;25.40;;;18.52;;
13445;SDS011;6795;51.232;3.764;2023-10-09T09:42:27;26.60;;;19.75;;
13445;SDS011;6795;51.232;3.764;2023-10-09T09:45:00;24.42;;;17.52;;
13445;SDS011;6795;51.232;3.764;2023-10-09T09:47:30;24.48;;;17.80;;
13445;SDS011;6795;51.232;3.764;2023-10-09T09:50:03;25.88;;;18.40;;
13445;SDS011;6795;51.232;3.764;2023-10-09T09:52:50;22.05;;;17.88;;
13445;SDS011;6795;51.232;3.764;2023-10-09T09:55:24;23.40;;;17.05;;
13445;SDS011;6795;51.232;3.764;2023-10-09T09:58:02;22.00;;;17.50;;
13445;SDS011;6795;51.232;3.764;2023-10-09T10:00:33;24.00;;;17.27;;
13445;SDS011;6795;51.232;3.764;2023-10-09T10:03:10;20.55;;;18.00;;
13445;SDS011;6795;51.232;3.764;2023-10-09T10:05:44;21.67;;;17.98;;
13445;SDS011;6795;51.232;3.764;2023-10-09T10:08:17;25.05;;;17.30;;
13445;SDS011;6795;51.232;3.764;2023-10-09T10:10:47;20.05;;;17.38;;
13445;SDS011;6795;51.232;3.764;2023-10-09T10:13:53;24.90;;;18.13;;
13445;SDS011;6795;51.232;3.764;2023-10-09T10:16:26;21.67;;;16.88;;
13445;SDS011;6795;51.232;3.764;2023-10-09T10:19:02;24.23;;;17.13;;
13445;SDS011;6795;51.232;3.764;2023-10-09T10:21:49;22.40;;;17.20;;
13445;SDS011;6795;51.232;3.764;2023-10-09T10:27:21;27.90;;;16.85;;
13445;SDS011;6795;51.232;3.764;2023-10-09T10:32:58;18.98;;;15.75;;
13445;SDS011;6795;51.232;3.764;2023-10-09T10:35:36;20.02;;;15.98;;
13445;SDS011;6795;51.232;3.764;2023-10-09T10:38:22;21.33;;;15.77;;
13445;SDS011;6795;51.232;3.764;2023-10-09T10:41:13;17.35;;;15.27;;
13445;SDS011;6795;51.232;3.764;2023-10-09T10:43:44;19.65;;;15.35;;
13445;SDS011;6795;51.232;3.764;2023-10-09T10:46:25;18.33;;;14.77;;
13445;SDS011;6795;51.232;3.764;2023-10-09T10:49:06;21.38;;;14.30;;
13445;SDS011;6795;51.232;3.764;2023-10-09T10:51:47;22.88;;;14.68;;
13445;SDS011;6795;51.232;3.764;2023-10-09T10:54:28;18.83;;;14.43;;
13445;SDS011;6795;51.232;3.764;2023-10-09T10:57:18;19.88;;;13.93;;
13445;SDS011;6795;51.232;3.764;2023-10-09T10:59:46;20.45;;;13.95;;
13445;SDS011;6795;51.232;3.764;2023-10-09T11:02:29;18.70;;;13.25;;
13445;SDS011;6795;51.232;3.764;2023-10-09T11:04:58;19.65;;;14.10;;
13445;SDS011;6795;51.232;3.764;2023-10-09T11:07:41;17.70;;;13.02;;
13445;SDS011;6795;51.232;3.764;2023-10-09T11:10:10;21.85;;;13.95;;
13445;SDS011;6795;51.232;3.764;2023-10-09T11:12:54;16.77;;;12.35;;
13445;SDS011;6795;51.232;3.764;2023-10-09T11:15:37;18.35;;;12.57;;
13445;SDS011;6795;51.232;3.764;2023-10-09T11:18:13;18.60;;;10.95;;
13445;SDS011;6795;51.232;3.764;2023-10-09T11:20:48;20.42;;;12.18;;
13445;SDS011;6795;51.232;3.764;2023-10-09T11:23:43;16.13;;;12.43;;
13445;SDS011;6795;51.232;3.764;2023-10-09T11:26:46;17.88;;;11.48;;
13445;SDS011;6795;51.232;3.764;2023-10-09T11:29:22;19.35;;;11.80;;
13445;SDS011;6795;51.232;3.764;2023-10-09T11:31:59;21.17;;;11.57;;
13445;SDS011;6795;51.232;3.764;2023-10-09T11:34:28;20.15;;;12.43;;
13445;SDS011;6795;51.232;3.764;2023-10-09T11:36:59;17.20;;;12.20;;
13445;SDS011;6795;51.232;3.764;2023-10-09T11:39:29;17.73;;;11.68;;
13445;SDS011;6795;51.232;3.764;2023-10-09T11:42:06;23.10;;;11.55;;
13445;SDS011;6795;51.232;3.764;2023-10-09T11:44:41;19.80;;;11.43;;
13445;SDS011;6795;51.232;3.764;2023-10-09T11:47:11;21.17;;;11.05;;
13445;SDS011;6795;51.232;3.764;2023-10-09T11:49:52;14.45;;;10.48;;
13445;SDS011;6795;51.232;3.764;2023-10-09T11:55:36;14.82;;;10.55;;
13445;SDS011;6795;51.232;3.764;2023-10-09T11:58:04;22.10;;;10.90;;
13445;SDS011;6795;51.232;3.764;2023-10-09T12:00:35;17.55;;;10.20;;
13445;SDS011;6795;51.232;3.764;2023-10-09T12:03:13;13.50;;;10.32;;
13445;SDS011;6795;51.232;3.764;2023-10-09T12:05:43;16.73;;;9.50;;
13445;SDS011;6795;51.232;3.764;2023-10-09T12:08:12;23.23;;;10.38;;
13445;SDS011;6795;51.232;3.764;2023-10-09T12:10:42;14.23;;;10.20;;
13445;SDS011;6795;51.232;3.764;2023-10-09T12:13:11;15.48;;;9.25;;
13445;SDS011;6795;51.232;3.764;2023-10-09T12:15:43;12.95;;;7.40;;
13445;SDS011;6795;51.232;3.764;2023-10-09T12:18:13;9.90;;;6.85;;
13445;SDS011;6795;51.232;3.764;2023-10-09T12:20:45;8.32;;;5.18;;
13445;SDS011;6795;51.232;3.764;2023-10-09T12:23:17;10.40;;;5.57;;
13445;SDS011;6795;51.232;3.764;2023-10-09T12:25:48;8.43;;;4.15;;
13445;SDS011;6795;51.232;3.764;2023-10-09T12:28:17;10.65;;;5.57;;
13445;SDS011;6795;51.232;3.764;2023-10-09T12:30:48;6.72;;;5.00;;
13445;SDS011;6795;51.232;3.764;2023-10-09T12:33:18;9.85;;;5.57;;
13445;SDS011;6795;51.232;3.764;2023-10-09T12:35:56;10.18;;;5.47;;
13445;SDS011;6795;51.232;3.764;2023-10-09T12:38:27;9.35;;;5.40;;
13445;SDS011;6795;51.232;3.764;2023-10-09T12:41:02;10.63;;;5.22;;
13445;SDS011;6795;51.232;3.764;2023-10-09T12:43:35;11.05;;;5.50;;
13445;SDS011;6795;51.232;3.764;2023-10-09T12:46:07;11.23;;;4.97;;
13445;SDS011;6795;51.232;3.764;2023-10-09T12:48:35;12.48;;;5.38;;
13445;SDS011;6795;51.232;3.764;2023-10-09T12:51:04;10.57;;;4.35;;
13445;SDS011;6795;51.232;3.764;2023-10-09T12:53:36;7.82;;;4.40;;
13445;SDS011;6795;51.232;3.764;2023-10-09T12:56:08;7.53;;;3.72;;
13445;SDS011;6795;51.232;3.764;2023-10-09T12:58:38;9.13;;;3.83;;
13445;SDS011;6795;51.232;3.764;2023-10-09T13:01:10;7.85;;;4.15;;
13445;SDS011;6795;51.232;3.764;2023-10-09T13:03:38;6.68;;;3.95;;
13445;SDS011;6795;51.232;3.764;2023-10-09T13:06:07;14.32;;;4.55;;
13445;SDS011;6795;51.232;3.764;2023-10-09T13:08:37;7.22;;;4.57;;
13445;SDS011;6795;51.232;3.764;2023-10-09T13:11:08;8.23;;;4.63;;
13445;SDS011;6795;51.232;3.764;2023-10-09T13:13:39;13.15;;;4.50;;
13445;SDS011;6795;51.232;3.764;2023-10-09T13:16:12;12.65;;;5.10;;
13445;SDS011;6795;51.232;3.764;2023-10-09T13:18:49;7.65;;;4.45;;
13445;SDS011;6795;51.232;3.764;2023-10-09T13:21:18;10.85;;;4.97;;
13445;SDS011;6795;51.232;3.764;2023-10-09T13:23:47;9.93;;;4.30;;
13445;SDS011;6795;51.232;3.764;2023-10-09T13:26:18;8.10;;;4.40;;
13445;SDS011;6795;51.232;3.764;2023-10-09T13:28:59;8.75;;;3.58;;
13445;SDS011;6795;51.232;3.764;2023-10-09T13:31:32;7.63;;;4.25;;
13445;SDS011;6795;51.232;3.764;2023-10-09T13:34:02;7.00;;;4.00;;
13445;SDS011;6795;51.232;3.764;2023-10-09T13:36:33;8.98;;;4.28;;
13445;SDS011;6795;51.232;3.764;2023-10-09T13:39:02;6.50;;;4.30;;
13445;SDS011;6795;51.232;3.764;2023-10-09T13:41:49;9.27;;;4.35;;
13445;SDS011;6795;51.232;3.764;2023-10-09T13:44:25;8.43;;;4.47;;
13445;SDS011;6795;51.232;3.764;2023-10-09T13:46:56;8.15;;;4.07;;
13445;SDS011;6795;51.232;3.764;2023-10-09T13:49:25;5.45;;;4.00;;
13445;SDS011;6795;51.232;3.764;2023-10-09T13:51:57;7.72;;;4.30;;
13445;SDS011;6795;51.232;3.764;2023-10-09T13:54:28;10.95;;;4.15;;
13445;SDS011;6795;51.232;3.764;2023-10-09T13:57:06;8.02;;;5.43;;
13445;SDS011;6795;51.232;3.764;2023-10-09T13:59:37;9.23;;;5.18;;
13445;SDS011;6795;51.232;3.764;2023-10-09T14:02:11;7.95;;;4.20;;
13445;SDS011;6795;51.232;3.764;2023-10-09T14:04:45;9.60;;;3.90;;
13445;SDS011;6795;51.232;3.764;2023-10-09T14:07:18;4.97;;;3.70;;
13445;SDS011;6795;51.232;3.764;2023-10-09T14:09:47;5.80;;;3.63;;
13445;SDS011;6795;51.232;3.764;2023-10-09T14:12:34;8.65;;;4.35;;
13445;SDS011;6795;51.232;3.764;2023-10-09T14:15:07;7.38;;;3.47;;
13445;SDS011;6795;51.232;3.764;2023-10-09T14:17:39;7.28;;;4.53;;
13445;SDS011;6795;51.232;3.764;2023-10-09T14:20:09;9.93;;;5.05;;
13445;SDS011;6795;51.232;3.764;2023-10-09T14:23:04;5.28;;;3.72;;
13445;SDS011;6795;51.232;3.764;2023-10-09T14:25:34;9.57;;;3.60;;
13445;SDS011;6795;51.232;3.764;2023-10-09T14:28:06;9.80;;;4.00;;
13445;SDS011;6795;51.232;3.764;2023-10-09T14:30:35;14.23;;;3.80;;
13445;SDS011;6795;51.232;3.764;2023-10-09T14:33:09;6.05;;;3.92;;
13445;SDS011;6795;51.232;3.764;2023-10-09T14:35:40;11.63;;;3.35;;
13445;SDS011;6795;51.232;3.764;2023-10-09T14:38:11;6.13;;;3.22;;
13445;SDS011;6795;51.232;3.764;2023-10-09T14:40:43;14.70;;;3.38;;
13445;SDS011;6795;51.232;3.764;2023-10-09T14:43:18;7.75;;;3.33;;
13445;SDS011;6795;51.232;3.764;2023-10-09T14:45:46;8.25;;;3.45;;
13445;SDS011;6795;51.232;3.764;2023-10-09T14:48:16;15.30;;;4.07;;
13445;SDS011;6795;51.232;3.764;2023-10-09T14:50:46;7.00;;;3.75;;
13445;SDS011;6795;51.232;3.764;2023-10-09T14:53:17;7.82;;;3.30;;
13445;SDS011;6795;51.232;3.764;2023-10-09T14:55:53;10.20;;;3.58;;
13445;SDS011;6795;51.232;3.764;2023-10-09T14:58:22;6.03;;;3.67;;
13445;SDS011;6795;51.232;3.764;2023-10-09T15:00:52;11.98;;;3.53;;
13445;SDS011;6795;51.232;3.764;2023-10-09T15:03:20;6.82;;;3.92;;
13445;SDS011;6795;51.232;3.764;2023-10-09T15:05:49;7.40;;;3.85;;
13445;SDS011;6795;51.232;3.764;2023-10-09T15:08:19;7.88;;;3.97;;
13445;SDS011;6795;51.232;3.764;2023-10-09T15:10:48;14.85;;;3.75;;
13445;SDS011;6795;51.232;3.764;2023-10-09T15:13:18;11.63;;;3.85;;
13445;SDS011;6795;51.232;3.764;2023-10-09T15:15:46;8.30;;;3.55;;
13445;SDS011;6795;51.232;3.764;2023-10-09T15:18:18;13.80;;;3.30;;
13445;SDS011;6795;51.232;3.764;2023-10-09T15:20:48;14.18;;;3.28;;
13445;SDS011;6795;51.232;3.764;2023-10-09T15:23:19;5.32;;;3.05;;
13445;SDS011;6795;51.232;3.764;2023-10-09T15:25:48;8.18;;;3.35;;
13445;SDS011;6795;51.232;3.764;2023-10-09T15:28:19;7.82;;;3.58;;
13445;SDS011;6795;51.232;3.764;2023-10-09T15:30:50;6.82;;;3.67;;
13445;SDS011;6795;51.232;3.764;2023-10-09T15:33:20;6.22;;;3.67;;
13445;SDS011;6795;51.232;3.764;2023-10-09T15:35:49;8.93;;;3.30;;
13445;SDS011;6795;51.232;3.764;2023-10-09T15:38:17;10.45;;;4.40;;
13445;SDS011;6795;51.232;3.764;2023-10-09T15:40:47;4.65;;;3.10;;